sensor_id;sensor_type;location;lat;lon;timestamp;temperature;humidity
28171;DHT22;15458;53.346;-1.688;2023-07-20T00:01:28;11.70;99.90
28171;DHT22;15458;53.346;-1.688;2023-07-20T00:03:53;11.70;99.90
28171;DHT22;15458;53.346;-1.688;2023-07-20T00:06:22;11.70;99.90
28171;DHT22;15458;53.346;-1.688;2023-07-20T00:08:49;11.80;99.90
28171;DHT22;15458;53.346;-1.688;2023-07-20T00:11:15;11.80;99.90
28171;DHT22;15458;53.346;-1.688;2023-07-20T00:13:40;11.80;99.90
28171;DHT22;15458;53.346;-1.688;2023-07-20T00:16:06;11.80;99.90
28171;DHT22;15458;53.346;-1.688;2023-07-20T00:18:32;11.90;99.90
28171;DHT22;15458;53.346;-1.688;2023-07-20T00:20:58;11.90;99.90
28171;DHT22;15458;53.346;-1.688;2023-07-20T00:23:25;11.90;99.90
28171;DHT22;15458;53.346;-1.688;2023-07-20T00:25:51;12.00;99.90
28171;DHT22;15458;53.346;-1.688;2023-07-20T00:28:17;12.00;99.90
28171;DHT22;15458;53.346;-1.688;2023-07-20T00:30:43;12.10;99.90
28171;DHT22;15458;53.346;-1.688;2023-07-20T00:33:12;12.10;99.90
28171;DHT22;15458;53.346;-1.688;2023-07-20T00:35:40;12.20;99.90
28171;DHT22;15458;53.346;-1.688;2023-07-20T00:38:06;12.20;99.90
28171;DHT22;15458;53.346;-1.688;2023-07-20T00:40:39;12.30;99.90
28171;DHT22;15458;53.346;-1.688;2023-07-20T00:43:05;12.30;99.90
28171;DHT22;15458;53.346;-1.688;2023-07-20T00:45:32;12.20;99.90
28171;DHT22;15458;53.346;-1.688;2023-07-20T00:47:59;12.20;99.90
28171;DHT22;15458;53.346;-1.688;2023-07-20T00:50:26;12.20;99.90
28171;DHT22;15458;53.346;-1.688;2023-07-20T00:52:52;12.10;99.90
28171;DHT22;15458;53.346;-1.688;2023-07-20T00:55:19;12.10;99.90
28171;DHT22;15458;53.346;-1.688;2023-07-20T00:57:44;12.10;99.90
28171;DHT22;15458;53.346;-1.688;2023-07-20T01:00:11;12.00;99.90
28171;DHT22;15458;53.346;-1.688;2023-07-20T01:02:37;12.10;99.90
28171;DHT22;15458;53.346;-1.688;2023-07-20T01:05:04;12.00;99.90
28171;DHT22;15458;53.346;-1.688;2023-07-20T01:10:09;12.00;99.90
28171;DHT22;15458;53.346;-1.688;2023-07-20T01:12:45;12.00;99.90
28171;DHT22;15458;53.346;-1.688;2023-07-20T01:15:12;12.00;99.90
28171;DHT22;15458;53.346;-1.688;2023-07-20T01:17:38;11.90;99.90
28171;DHT22;15458;53.346;-1.688;2023-07-20T01:20:05;11.90;99.90
28171;DHT22;15458;53.346;-1.688;2023-07-20T01:31:36;11.60;99.90
28171;DHT22;15458;53.346;-1.688;2023-07-20T01:34:03;11.40;99.90
28171;DHT22;15458;53.346;-1.688;2023-07-20T01:36:35;11.30;99.90
28171;DHT22;15458;53.346;-1.688;2023-07-20T01:39:02;11.20;99.90
28171;DHT22;15458;53.346;-1.688;2023-07-20T01:41:28;11.20;99.90
28171;DHT22;15458;53.346;-1.688;2023-07-20T01:43:57;11.10;99.90
28171;DHT22;15458;53.346;-1.688;2023-07-20T01:46:22;11.00;99.90
28171;DHT22;15458;53.346;-1.688;2023-07-20T01:48:48;11.00;99.90
28171;DHT22;15458;53.346;-1.688;2023-07-20T01:51:13;11.00;99.90
28171;DHT22;15458;53.346;-1.688;2023-07-20T01:53:39;10.90;99.90
28171;DHT22;15458;53.346;-1.688;2023-07-20T01:56:05;10.90;99.90
28171;DHT22;15458;53.346;-1.688;2023-07-20T01:58:30;10.90;99.90
28171;DHT22;15458;53.346;-1.688;2023-07-20T02:00:56;10.90;99.90
28171;DHT22;15458;53.346;-1.688;2023-07-20T02:03:21;10.90;99.90
28171;DHT22;15458;53.346;-1.688;2023-07-20T02:05:49;10.80;99.90
28171;DHT22;15458;53.346;-1.688;2023-07-20T02:08:15;10.80;99.90
28171;DHT22;15458;53.346;-1.688;2023-07-20T02:10:41;10.80;99.90
28171;DHT22;15458;53.346;-1.688;2023-07-20T02:13:07;10.70;99.90
28171;DHT22;15458;53.346;-1.688;2023-07-20T02:15:33;10.70;99.90
28171;DHT22;15458;53.346;-1.688;2023-07-20T02:17:58;10.70;99.90
28171;DHT22;15458;53.346;-1.688;2023-07-20T02:20:24;10.70;99.90
28171;DHT22;15458;53.346;-1.688;2023-07-20T02:22:50;10.70;99.90
28171;DHT22;15458;53.346;-1.688;2023-07-20T02:25:15;10.80;99.90
28171;DHT22;15458;53.346;-1.688;2023-07-20T02:27:41;10.80;99.90
28171;DHT22;15458;53.346;-1.688;2023-07-20T02:30:07;10.80;99.90
28171;DHT22;15458;53.346;-1.688;2023-07-20T02:32:34;10.80;99.90
28171;DHT22;15458;53.346;-1.688;2023-07-20T02:35:00;10.70;99.90
28171;DHT22;15458;53.346;-1.688;2023-07-20T02:37:26;10.60;99.90
28171;DHT22;15458;53.346;-1.688;2023-07-20T02:39:51;10.60;99.90
28171;DHT22;15458;53.346;-1.688;2023-07-20T02:42:17;10.50;99.90
28171;DHT22;15458;53.346;-1.688;2023-07-20T02:44:43;10.50;99.90
28171;DHT22;15458;53.346;-1.688;2023-07-20T02:47:08;10.60;99.90
28171;DHT22;15458;53.346;-1.688;2023-07-20T02:49:34;10.60;99.90
28171;DHT22;15458;53.346;-1.688;2023-07-20T02:52:00;10.60;99.90
28171;DHT22;15458;53.346;-1.688;2023-07-20T02:54:25;10.70;99.90
28171;DHT22;15458;53.346;-1.688;2023-07-20T02:56:51;10.80;99.90
28171;DHT22;15458;53.346;-1.688;2023-07-20T02:59:17;10.80;99.90
28171;DHT22;15458;53.346;-1.688;2023-07-20T03:01:42;10.90;99.90
28171;DHT22;15458;53.346;-1.688;2023-07-20T03:04:08;10.90;99.90
28171;DHT22;15458;53.346;-1.688;2023-07-20T03:06:36;10.80;99.90
28171;DHT22;15458;53.346;-1.688;2023-07-20T03:09:02;10.80;99.90
28171;DHT22;15458;53.346;-1.688;2023-07-20T03:11:29;10.70;99.90
28171;DHT22;15458;53.346;-1.688;2023-07-20T03:13:54;10.70;99.90
28171;DHT22;15458;53.346;-1.688;2023-07-20T03:16:21;10.70;99.90
28171;DHT22;15458;53.346;-1.688;2023-07-20T03:18:47;10.70;99.90
28171;DHT22;15458;53.346;-1.688;2023-07-20T03:21:13;10.80;99.90
28171;DHT22;15458;53.346;-1.688;2023-07-20T03:23:40;10.90;99.90
28171;DHT22;15458;53.346;-1.688;2023-07-20T03:26:05;11.00;99.90
28171;DHT22;15458;53.346;-1.688;2023-07-20T03:28:37;11.10;99.90
28171;DHT22;15458;53.346;-1.688;2023-07-20T03:31:03;11.10;99.90
28171;DHT22;15458;53.346;-1.688;2023-07-20T03:33:30;11.10;99.90
28171;DHT22;15458;53.346;-1.688;2023-07-20T03:35:56;11.20;99.90
28171;DHT22;15458;53.346;-1.688;2023-07-20T03:38:25;11.20;99.90
28171;DHT22;15458;53.346;-1.688;2023-07-20T03:40:51;11.20;99.90
28171;DHT22;15458;53.346;-1.688;2023-07-20T03:43:17;11.20;99.90
28171;DHT22;15458;53.346;-1.688;2023-07-20T03:45:43;11.20;99.90
28171;DHT22;15458;53.346;-1.688;2023-07-20T03:48:09;11.20;99.90
28171;DHT22;15458;53.346;-1.688;2023-07-20T03:50:34;11.20;99.90
28171;DHT22;15458;53.346;-1.688;2023-07-20T03:53:00;11.30;99.90
28171;DHT22;15458;53.346;-1.688;2023-07-20T03:55:26;11.30;99.90
28171;DHT22;15458;53.346;-1.688;2023-07-20T03:57:51;11.20;99.90
28171;DHT22;15458;53.346;-1.688;2023-07-20T04:00:17;11.20;99.90
28171;DHT22;15458;53.346;-1.688;2023-07-20T04:02:43;11.20;99.90
28171;DHT22;15458;53.346;-1.688;2023-07-20T04:05:09;11.10;99.90
28171;DHT22;15458;53.346;-1.688;2023-07-20T04:07:35;11.20;99.90
28171;DHT22;15458;53.346;-1.688;2023-07-20T04:10:00;11.10;99.90
28171;DHT22;15458;53.346;-1.688;2023-07-20T04:12:26;11.10;99.90
28171;DHT22;15458;53.346;-1.688;2023-07-20T04:14:52;11.10;99.90
28171;DHT22;15458;53.346;-1.688;2023-07-20T04:17:18;11.00;99.90
28171;DHT22;15458;53.346;-1.688;2023-07-20T04:19:44;11.00;99.90
28171;DHT22;15458;53.346;-1.688;2023-07-20T04:22:09;11.10;99.90
28171;DHT22;15458;53.346;-1.688;2023-07-20T04:24:35;11.10;99.90
28171;DHT22;15458;53.346;-1.688;2023-07-20T04:27:01;11.10;99.90
28171;DHT22;15458;53.346;-1.688;2023-07-20T04:29:27;11.10;99.90
28171;DHT22;15458;53.346;-1.688;2023-07-20T04:31:52;11.20;99.90
28171;DHT22;15458;53.346;-1.688;2023-07-20T04:34:18;11.20;99.90
28171;DHT22;15458;53.346;-1.688;2023-07-20T04:36:44;11.30;99.90
28171;DHT22;15458;53.346;-1.688;2023-07-20T04:39:10;11.20;99.90
28171;DHT22;15458;53.346;-1.688;2023-07-20T04:41:35;11.20;99.90
28171;DHT22;15458;53.346;-1.688;2023-07-20T04:44:01;11.20;99.90
28171;DHT22;15458;53.346;-1.688;2023-07-20T04:46:27;11.30;99.90
28171;DHT22;15458;53.346;-1.688;2023-07-20T04:48:52;11.30;99.90
28171;DHT22;15458;53.346;-1.688;2023-07-20T04:51:18;11.30;99.90
28171;DHT22;15458;53.346;-1.688;2023-07-20T04:53:47;11.30;99.90
28171;DHT22;15458;53.346;-1.688;2023-07-20T04:56:12;11.30;99.90
28171;DHT22;15458;53.346;-1.688;2023-07-20T04:58:38;11.40;99.90
28171;DHT22;15458;53.346;-1.688;2023-07-20T05:01:05;11.30;99.90
28171;DHT22;15458;53.346;-1.688;2023-07-20T05:03:30;11.30;99.90
28171;DHT22;15458;53.346;-1.688;2023-07-20T05:05:57;11.40;99.90
28171;DHT22;15458;53.346;-1.688;2023-07-20T05:08:23;11.40;99.90
28171;DHT22;15458;53.346;-1.688;2023-07-20T05:10:48;11.40;99.90
28171;DHT22;15458;53.346;-1.688;2023-07-20T05:13:15;11.40;99.90
28171;DHT22;15458;53.346;-1.688;2023-07-20T05:15:40;11.40;99.90
28171;DHT22;15458;53.346;-1.688;2023-07-20T05:18:06;11.50;99.90
28171;DHT22;15458;53.346;-1.688;2023-07-20T05:20:34;11.50;99.90
28171;DHT22;15458;53.346;-1.688;2023-07-20T05:23:00;11.50;99.90
28171;DHT22;15458;53.346;-1.688;2023-07-20T05:25:27;11.60;99.90
28171;DHT22;15458;53.346;-1.688;2023-07-20T05:27:55;11.60;99.90
28171;DHT22;15458;53.346;-1.688;2023-07-20T05:30:21;11.60;99.90
28171;DHT22;15458;53.346;-1.688;2023-07-20T05:32:46;11.50;99.90
28171;DHT22;15458;53.346;-1.688;2023-07-20T05:35:17;11.50;99.90
28171;DHT22;15458;53.346;-1.688;2023-07-20T05:37:43;11.60;99.90
28171;DHT22;15458;53.346;-1.688;2023-07-20T05:40:09;11.60;99.90
28171;DHT22;15458;53.346;-1.688;2023-07-20T05:42:37;11.60;99.90
28171;DHT22;15458;53.346;-1.688;2023-07-20T05:45:03;11.60;99.90
28171;DHT22;15458;53.346;-1.688;2023-07-20T05:47:29;11.70;99.90
28171;DHT22;15458;53.346;-1.688;2023-07-20T05:49:55;11.70;99.90
28171;DHT22;15458;53.346;-1.688;2023-07-20T05:52:20;11.70;99.90
28171;DHT22;15458;53.346;-1.688;2023-07-20T05:54:46;11.80;99.90
28171;DHT22;15458;53.346;-1.688;2023-07-20T05:57:12;11.80;99.90
28171;DHT22;15458;53.346;-1.688;2023-07-20T05:59:37;11.90;99.90
28171;DHT22;15458;53.346;-1.688;2023-07-20T06:02:04;11.90;99.90
28171;DHT22;15458;53.346;-1.688;2023-07-20T06:04:29;11.90;99.90
28171;DHT22;15458;53.346;-1.688;2023-07-20T06:06:55;11.90;99.90
28171;DHT22;15458;53.346;-1.688;2023-07-20T06:09:21;11.90;99.90
28171;DHT22;15458;53.346;-1.688;2023-07-20T06:11:46;11.90;99.90
28171;DHT22;15458;53.346;-1.688;2023-07-20T06:14:12;12.00;99.90
28171;DHT22;15458;53.346;-1.688;2023-07-20T06:16:38;12.00;99.90
28171;DHT22;15458;53.346;-1.688;2023-07-20T06:19:03;12.10;99.90
28171;DHT22;15458;53.346;-1.688;2023-07-20T06:21:29;12.20;99.90
28171;DHT22;15458;53.346;-1.688;2023-07-20T06:23:55;12.30;99.90
28171;DHT22;15458;53.346;-1.688;2023-07-20T06:26:21;12.30;99.90
28171;DHT22;15458;53.346;-1.688;2023-07-20T06:28:47;12.40;99.90
28171;DHT22;15458;53.346;-1.688;2023-07-20T06:31:12;12.50;99.90
28171;DHT22;15458;53.346;-1.688;2023-07-20T06:33:38;12.60;99.90
28171;DHT22;15458;53.346;-1.688;2023-07-20T06:36:04;12.70;99.90
28171;DHT22;15458;53.346;-1.688;2023-07-20T06:38:29;12.70;99.90
28171;DHT22;15458;53.346;-1.688;2023-07-20T06:40:55;12.80;99.90
28171;DHT22;15458;53.346;-1.688;2023-07-20T06:43:21;12.90;99.90
28171;DHT22;15458;53.346;-1.688;2023-07-20T06:45:51;12.90;99.90
28171;DHT22;15458;53.346;-1.688;2023-07-20T06:48:21;13.00;99.90
28171;DHT22;15458;53.346;-1.688;2023-07-20T06:50:47;13.10;99.90
28171;DHT22;15458;53.346;-1.688;2023-07-20T06:53:12;13.20;99.90
28171;DHT22;15458;53.346;-1.688;2023-07-20T06:55:38;13.20;99.90
28171;DHT22;15458;53.346;-1.688;2023-07-20T06:58:04;13.30;99.90
28171;DHT22;15458;53.346;-1.688;2023-07-20T07:00:30;13.40;99.90
28171;DHT22;15458;53.346;-1.688;2023-07-20T07:02:56;13.40;99.90
28171;DHT22;15458;53.346;-1.688;2023-07-20T07:05:22;13.60;99.90
28171;DHT22;15458;53.346;-1.688;2023-07-20T07:07:47;13.60;99.90
28171;DHT22;15458;53.346;-1.688;2023-07-20T07:10:14;13.70;99.90
28171;DHT22;15458;53.346;-1.688;2023-07-20T07:12:40;13.80;99.90
28171;DHT22;15458;53.346;-1.688;2023-07-20T07:15:06;13.80;99.90
28171;DHT22;15458;53.346;-1.688;2023-07-20T07:17:32;13.90;99.90
28171;DHT22;15458;53.346;-1.688;2023-07-20T07:19:58;14.00;99.90
28171;DHT22;15458;53.346;-1.688;2023-07-20T07:22:24;14.00;99.90
28171;DHT22;15458;53.346;-1.688;2023-07-20T07:24:50;14.10;99.90
28171;DHT22;15458;53.346;-1.688;2023-07-20T07:27:16;14.20;99.90
28171;DHT22;15458;53.346;-1.688;2023-07-20T07:29:42;14.20;99.90
28171;DHT22;15458;53.346;-1.688;2023-07-20T07:32:12;14.30;99.90
28171;DHT22;15458;53.346;-1.688;2023-07-20T07:34:38;14.40;99.90
28171;DHT22;15458;53.346;-1.688;2023-07-20T07:37:04;14.50;99.90
28171;DHT22;15458;53.346;-1.688;2023-07-20T07:39:30;14.60;99.90
28171;DHT22;15458;53.346;-1.688;2023-07-20T07:41:56;14.60;99.90
28171;DHT22;15458;53.346;-1.688;2023-07-20T07:44:23;14.70;99.90
28171;DHT22;15458;53.346;-1.688;2023-07-20T07:46:49;14.80;99.90
28171;DHT22;15458;53.346;-1.688;2023-07-20T07:49:15;14.80;99.90
28171;DHT22;15458;53.346;-1.688;2023-07-20T07:51:41;14.90;99.90
28171;DHT22;15458;53.346;-1.688;2023-07-20T07:54:07;14.90;99.90
28171;DHT22;15458;53.346;-1.688;2023-07-20T07:56:32;15.00;99.90
28171;DHT22;15458;53.346;-1.688;2023-07-20T07:58:58;15.00;99.90
28171;DHT22;15458;53.346;-1.688;2023-07-20T08:01:24;15.10;99.90
28171;DHT22;15458;53.346;-1.688;2023-07-20T08:03:50;15.20;99.90
28171;DHT22;15458;53.346;-1.688;2023-07-20T08:06:17;15.20;99.90
28171;DHT22;15458;53.346;-1.688;2023-07-20T08:08:43;15.30;99.90
28171;DHT22;15458;53.346;-1.688;2023-07-20T08:11:08;15.30;99.90
28171;DHT22;15458;53.346;-1.688;2023-07-20T08:13:38;15.30;99.90
28171;DHT22;15458;53.346;-1.688;2023-07-20T08:16:04;15.40;99.90
28171;DHT22;15458;53.346;-1.688;2023-07-20T08:18:33;15.40;99.90
28171;DHT22;15458;53.346;-1.688;2023-07-20T08:20:59;15.40;99.90
28171;DHT22;15458;53.346;-1.688;2023-07-20T08:23:24;15.50;99.90
28171;DHT22;15458;53.346;-1.688;2023-07-20T08:25:50;15.60;99.90
28171;DHT22;15458;53.346;-1.688;2023-07-20T08:28:16;15.60;99.90
28171;DHT22;15458;53.346;-1.688;2023-07-20T08:30:43;15.70;99.90
28171;DHT22;15458;53.346;-1.688;2023-07-20T08:33:17;15.80;99.90
28171;DHT22;15458;53.346;-1.688;2023-07-20T08:35:46;15.80;99.90
28171;DHT22;15458;53.346;-1.688;2023-07-20T08:38:12;15.70;99.90
28171;DHT22;15458;53.346;-1.688;2023-07-20T08:40:56;15.70;99.90
28171;DHT22;15458;53.346;-1.688;2023-07-20T08:43:23;15.80;99.90
28171;DHT22;15458;53.346;-1.688;2023-07-20T08:45:54;15.70;99.90
28171;DHT22;15458;53.346;-1.688;2023-07-20T08:48:21;15.80;99.90
28171;DHT22;15458;53.346;-1.688;2023-07-20T08:50:49;15.80;99.90
28171;DHT22;15458;53.346;-1.688;2023-07-20T08:53:16;15.90;99.90
28171;DHT22;15458;53.346;-1.688;2023-07-20T08:55:44;15.90;99.90
28171;DHT22;15458;53.346;-1.688;2023-07-20T08:58:12;15.90;99.90
28171;DHT22;15458;53.346;-1.688;2023-07-20T09:00:38;16.00;99.90
28171;DHT22;15458;53.346;-1.688;2023-07-20T09:03:04;16.00;99.90
28171;DHT22;15458;53.346;-1.688;2023-07-20T09:05:30;16.00;99.90
28171;DHT22;15458;53.346;-1.688;2023-07-20T09:07:56;16.10;99.90
28171;DHT22;15458;53.346;-1.688;2023-07-20T09:10:23;16.20;99.90
28171;DHT22;15458;53.346;-1.688;2023-07-20T09:12:49;16.20;99.90
28171;DHT22;15458;53.346;-1.688;2023-07-20T09:15:15;16.30;99.90
28171;DHT22;15458;53.346;-1.688;2023-07-20T09:17:46;16.30;99.90
28171;DHT22;15458;53.346;-1.688;2023-07-20T09:20:12;16.30;99.90
28171;DHT22;15458;53.346;-1.688;2023-07-20T09:22:39;16.40;99.90
28171;DHT22;15458;53.346;-1.688;2023-07-20T09:25:16;16.40;99.90
28171;DHT22;15458;53.346;-1.688;2023-07-20T09:27:47;16.50;99.90
28171;DHT22;15458;53.346;-1.688;2023-07-20T09:30:14;16.50;99.90
28171;DHT22;15458;53.346;-1.688;2023-07-20T09:32:45;16.50;99.90
28171;DHT22;15458;53.346;-1.688;2023-07-20T09:35:14;16.50;99.90
28171;DHT22;15458;53.346;-1.688;2023-07-20T09:37:42;16.50;99.90
28171;DHT22;15458;53.346;-1.688;2023-07-20T09:40:11;16.50;99.90
28171;DHT22;15458;53.346;-1.688;2023-07-20T09:42:39;16.60;99.90
28171;DHT22;15458;53.346;-1.688;2023-07-20T09:45:07;16.50;99.90
28171;DHT22;15458;53.346;-1.688;2023-07-20T09:47:36;16.60;99.90
28171;DHT22;15458;53.346;-1.688;2023-07-20T09:50:03;16.50;99.90
28171;DHT22;15458;53.346;-1.688;2023-07-20T09:52:29;16.50;99.90
28171;DHT22;15458;53.346;-1.688;2023-07-20T09:54:55;16.50;99.90
28171;DHT22;15458;53.346;-1.688;2023-07-20T09:57:21;16.40;99.90
28171;DHT22;15458;53.346;-1.688;2023-07-20T09:59:47;16.40;99.90
28171;DHT22;15458;53.346;-1.688;2023-07-20T10:02:25;16.40;99.90
28171;DHT22;15458;53.346;-1.688;2023-07-20T10:04:53;16.50;99.90
28171;DHT22;15458;53.346;-1.688;2023-07-20T10:07:21;16.50;99.90
28171;DHT22;15458;53.346;-1.688;2023-07-20T10:09:48;16.50;99.90
28171;DHT22;15458;53.346;-1.688;2023-07-20T10:12:17;16.60;99.90
28171;DHT22;15458;53.346;-1.688;2023-07-20T10:14:59;16.60;99.90
28171;DHT22;15458;53.346;-1.688;2023-07-20T10:17:30;16.70;99.90
28171;DHT22;15458;53.346;-1.688;2023-07-20T10:19:57;16.80;99.90
28171;DHT22;15458;53.346;-1.688;2023-07-20T10:22:26;16.80;99.90
28171;DHT22;15458;53.346;-1.688;2023-07-20T10:24:54;16.90;99.90
28171;DHT22;15458;53.346;-1.688;2023-07-20T10:27:23;17.00;99.90
28171;DHT22;15458;53.346;-1.688;2023-07-20T10:29:49;17.20;99.90
28171;DHT22;15458;53.346;-1.688;2023-07-20T10:32:16;17.30;99.90
28171;DHT22;15458;53.346;-1.688;2023-07-20T10:34:42;17.40;99.90
28171;DHT22;15458;53.346;-1.688;2023-07-20T10:37:08;17.60;99.90
28171;DHT22;15458;53.346;-1.688;2023-07-20T10:39:34;17.70;99.70
28171;DHT22;15458;53.346;-1.688;2023-07-20T10:42:01;17.70;99.10
28171;DHT22;15458;53.346;-1.688;2023-07-20T10:44:28;17.80;98.20
28171;DHT22;15458;53.346;-1.688;2023-07-20T10:47:03;17.90;97.60
28171;DHT22;15458;53.346;-1.688;2023-07-20T10:49:33;18.00;96.60
28171;DHT22;15458;53.346;-1.688;2023-07-20T10:52:04;18.00;95.70
28171;DHT22;15458;53.346;-1.688;2023-07-20T10:57:28;18.10;94.40
28171;DHT22;15458;53.346;-1.688;2023-07-20T11:00:08;18.00;93.40
28171;DHT22;15458;53.346;-1.688;2023-07-20T11:02:47;18.00;92.60
28171;DHT22;15458;53.346;-1.688;2023-07-20T11:05:33;18.10;92.30
28171;DHT22;15458;53.346;-1.688;2023-07-20T11:07:59;18.10;92.40
28171;DHT22;15458;53.346;-1.688;2023-07-20T11:10:25;18.10;92.30
28171;DHT22;15458;53.346;-1.688;2023-07-20T11:13:27;18.20;92.20
28171;DHT22;15458;53.346;-1.688;2023-07-20T11:18:25;18.30;91.70
28171;DHT22;15458;53.346;-1.688;2023-07-20T11:20:52;18.60;91.60
28171;DHT22;15458;53.346;-1.688;2023-07-20T11:23:19;18.80;91.20
28171;DHT22;15458;53.346;-1.688;2023-07-20T11:25:45;18.90;90.20
28171;DHT22;15458;53.346;-1.688;2023-07-20T11:28:11;19.00;88.40
28171;DHT22;15458;53.346;-1.688;2023-07-20T11:30:40;19.20;87.60
28171;DHT22;15458;53.346;-1.688;2023-07-20T11:33:08;19.40;86.00
28171;DHT22;15458;53.346;-1.688;2023-07-20T11:35:44;19.50;84.70
28171;DHT22;15458;53.346;-1.688;2023-07-20T11:38:12;19.50;84.00
28171;DHT22;15458;53.346;-1.688;2023-07-20T11:40:43;19.60;83.60
28171;DHT22;15458;53.346;-1.688;2023-07-20T11:43:11;19.80;82.00
28171;DHT22;15458;53.346;-1.688;2023-07-20T11:45:38;19.90;81.30
28171;DHT22;15458;53.346;-1.688;2023-07-20T11:48:04;19.90;80.30
28171;DHT22;15458;53.346;-1.688;2023-07-20T11:50:30;20.00;79.90
28171;DHT22;15458;53.346;-1.688;2023-07-20T11:52:56;20.00;78.90
28171;DHT22;15458;53.346;-1.688;2023-07-20T11:55:22;20.00;78.50
28171;DHT22;15458;53.346;-1.688;2023-07-20T11:58:09;19.90;77.80
28171;DHT22;15458;53.346;-1.688;2023-07-20T12:00:36;19.80;77.50
28171;DHT22;15458;53.346;-1.688;2023-07-20T12:03:05;19.90;78.00
28171;DHT22;15458;53.346;-1.688;2023-07-20T12:05:36;19.90;78.00
28171;DHT22;15458;53.346;-1.688;2023-07-20T12:08:01;20.00;77.40
28171;DHT22;15458;53.346;-1.688;2023-07-20T12:10:28;20.20;77.20
28171;DHT22;15458;53.346;-1.688;2023-07-20T12:12:54;20.40;77.00
28171;DHT22;15458;53.346;-1.688;2023-07-20T12:15:21;20.60;75.50
28171;DHT22;15458;53.346;-1.688;2023-07-20T12:17:50;20.80;74.40
28171;DHT22;15458;53.346;-1.688;2023-07-20T12:22:59;21.20;71.50
28171;DHT22;15458;53.346;-1.688;2023-07-20T12:25:45;21.30;71.00
28171;DHT22;15458;53.346;-1.688;2023-07-20T12:28:16;21.30;70.20
28171;DHT22;15458;53.346;-1.688;2023-07-20T12:30:43;21.60;69.80
28171;DHT22;15458;53.346;-1.688;2023-07-20T12:33:12;22.00;69.20
28171;DHT22;15458;53.346;-1.688;2023-07-20T12:35:41;22.40;68.40
28171;DHT22;15458;53.346;-1.688;2023-07-20T12:38:08;22.70;67.40
28171;DHT22;15458;53.346;-1.688;2023-07-20T12:40:34;23.00;66.50
28171;DHT22;15458;53.346;-1.688;2023-07-20T12:43:01;23.00;65.40
28171;DHT22;15458;53.346;-1.688;2023-07-20T12:45:27;22.90;65.40
28171;DHT22;15458;53.346;-1.688;2023-07-20T12:47:53;22.80;65.50
28171;DHT22;15458;53.346;-1.688;2023-07-20T12:50:18;22.50;65.40
28171;DHT22;15458;53.346;-1.688;2023-07-20T12:52:44;22.40;65.60
28171;DHT22;15458;53.346;-1.688;2023-07-20T12:55:10;22.50;65.70
28171;DHT22;15458;53.346;-1.688;2023-07-20T12:57:36;22.60;65.20
28171;DHT22;15458;53.346;-1.688;2023-07-20T13:00:04;22.70;64.20
28171;DHT22;15458;53.346;-1.688;2023-07-20T13:02:33;22.60;64.00
28171;DHT22;15458;53.346;-1.688;2023-07-20T13:04:59;22.50;63.90
28171;DHT22;15458;53.346;-1.688;2023-07-20T13:09:57;22.30;62.30
28171;DHT22;15458;53.346;-1.688;2023-07-20T13:12:24;22.20;61.30
28171;DHT22;15458;53.346;-1.688;2023-07-20T13:14:50;22.20;61.40
28171;DHT22;15458;53.346;-1.688;2023-07-20T13:17:16;22.30;61.80
28171;DHT22;15458;53.346;-1.688;2023-07-20T13:19:41;22.50;61.70
28171;DHT22;15458;53.346;-1.688;2023-07-20T13:22:07;22.70;61.40
28171;DHT22;15458;53.346;-1.688;2023-07-20T13:24:33;22.90;60.20
28171;DHT22;15458;53.346;-1.688;2023-07-20T13:26:58;23.00;60.30
28171;DHT22;15458;53.346;-1.688;2023-07-20T13:29:24;23.20;59.10
28171;DHT22;15458;53.346;-1.688;2023-07-20T13:31:52;23.30;58.90
28171;DHT22;15458;53.346;-1.688;2023-07-20T13:34:17;23.40;58.50
28171;DHT22;15458;53.346;-1.688;2023-07-20T13:36:43;23.40;58.00
28171;DHT22;15458;53.346;-1.688;2023-07-20T13:39:09;23.50;58.30
28171;DHT22;15458;53.346;-1.688;2023-07-20T13:41:34;23.50;58.00
28171;DHT22;15458;53.346;-1.688;2023-07-20T13:44:00;23.50;57.50
28171;DHT22;15458;53.346;-1.688;2023-07-20T13:46:26;23.50;57.80
28171;DHT22;15458;53.346;-1.688;2023-07-20T13:48:52;23.70;58.00
28171;DHT22;15458;53.346;-1.688;2023-07-20T13:51:17;23.80;57.50
28171;DHT22;15458;53.346;-1.688;2023-07-20T13:53:46;23.80;57.50
28171;DHT22;15458;53.346;-1.688;2023-07-20T13:56:11;23.90;57.50
28171;DHT22;15458;53.346;-1.688;2023-07-20T13:58:37;24.00;57.20
28171;DHT22;15458;53.346;-1.688;2023-07-20T14:01:03;24.10;57.10
28171;DHT22;15458;53.346;-1.688;2023-07-20T14:03:28;24.10;56.40
28171;DHT22;15458;53.346;-1.688;2023-07-20T14:05:54;24.20;56.60
28171;DHT22;15458;53.346;-1.688;2023-07-20T14:08:20;24.30;56.80
28171;DHT22;15458;53.346;-1.688;2023-07-20T14:10:46;24.20;57.00
28171;DHT22;15458;53.346;-1.688;2023-07-20T14:13:12;24.10;57.30
28171;DHT22;15458;53.346;-1.688;2023-07-20T14:15:38;24.00;57.00
28171;DHT22;15458;53.346;-1.688;2023-07-20T14:18:05;23.90;56.80
28171;DHT22;15458;53.346;-1.688;2023-07-20T14:20:30;23.90;57.00
28171;DHT22;15458;53.346;-1.688;2023-07-20T14:22:57;23.90;57.40
28171;DHT22;15458;53.346;-1.688;2023-07-20T14:25:23;23.80;57.30
28171;DHT22;15458;53.346;-1.688;2023-07-20T14:27:48;23.50;56.90
28171;DHT22;15458;53.346;-1.688;2023-07-20T14:30:14;23.30;57.20
28171;DHT22;15458;53.346;-1.688;2023-07-20T14:32:40;23.20;57.40
28171;DHT22;15458;53.346;-1.688;2023-07-20T14:35:06;23.20;57.90
28171;DHT22;15458;53.346;-1.688;2023-07-20T14:37:32;23.30;58.20
28171;DHT22;15458;53.346;-1.688;2023-07-20T14:39:58;23.60;58.40
28171;DHT22;15458;53.346;-1.688;2023-07-20T14:42:24;23.70;57.70
28171;DHT22;15458;53.346;-1.688;2023-07-20T14:44:50;23.80;57.10
28171;DHT22;15458;53.346;-1.688;2023-07-20T14:47:15;23.90;56.90
28171;DHT22;15458;53.346;-1.688;2023-07-20T14:49:41;23.90;56.00
28171;DHT22;15458;53.346;-1.688;2023-07-20T14:52:07;23.90;55.80
28171;DHT22;15458;53.346;-1.688;2023-07-20T14:54:33;23.80;56.10
28171;DHT22;15458;53.346;-1.688;2023-07-20T14:56:58;23.70;56.00
28171;DHT22;15458;53.346;-1.688;2023-07-20T14:59:24;23.80;56.20
28171;DHT22;15458;53.346;-1.688;2023-07-20T15:01:49;23.70;55.70
28171;DHT22;15458;53.346;-1.688;2023-07-20T15:04:16;23.50;55.20
28171;DHT22;15458;53.346;-1.688;2023-07-20T15:06:42;23.30;55.40
28171;DHT22;15458;53.346;-1.688;2023-07-20T15:09:08;23.00;55.70
28171;DHT22;15458;53.346;-1.688;2023-07-20T15:11:35;22.90;56.70
28171;DHT22;15458;53.346;-1.688;2023-07-20T15:14:01;22.80;57.40
28171;DHT22;15458;53.346;-1.688;2023-07-20T15:16:30;22.70;58.10
28171;DHT22;15458;53.346;-1.688;2023-07-20T15:18:55;22.50;58.50
28171;DHT22;15458;53.346;-1.688;2023-07-20T15:21:21;22.20;58.80
28171;DHT22;15458;53.346;-1.688;2023-07-20T15:23:48;22.10;59.40
28171;DHT22;15458;53.346;-1.688;2023-07-20T15:26:14;22.00;59.70
28171;DHT22;15458;53.346;-1.688;2023-07-20T15:28:40;22.00;59.80
28171;DHT22;15458;53.346;-1.688;2023-07-20T15:31:06;21.90;59.80
28171;DHT22;15458;53.346;-1.688;2023-07-20T15:33:32;22.00;60.10
28171;DHT22;15458;53.346;-1.688;2023-07-20T15:35:58;22.00;60.40